Hlavní strana
METAR-TAF:

METAR-TAF

Letiště :

Vladikavkaz, Rusko

zeměpisná šířka: 43-12-18N, zeměpisná délka: 044-36-24E, výška: 510 m

Aktuální stav počasí

Zpráva byla vytvořena před 6 hodinami a 1 minutami, v 17:00 UTC
Východojihovýchodní vítr 8 kt
Teplota 0°C
Vlhkost vzduchu 80%
Tlak 1016 hPa
Viditelnost 10 km a více
Oblačno až skoro zataženo ve výšce 4000 ft

METAR: URMO 251700Z 12004MPS 9999 BKN040 00/M03 Q1016 R09/010070 NOSIG RMK QFE718/0958

Čas: 02:01 (23:01 UTC)

Předpověď počasí

Zpráva byla vytvořena před 9 hodinami a 1 minutami, v 14:00 UTC
Předpověď platná od 25 v 15 UTC do 25 v 24 UTC
Východní vítr 6 kt s nárazy do 16 kt
Viditelnost 10 km a více
Oblačno až skoro zataženo ve výšce 3000 ft

TAF: URMO 251400Z 2515/2524 10003G08MPS 9999 BKN030

Stav a předpovědi počasí z více než 4 000 letišť (zprávy METAR a TAF).

Červené a žluté tečky na mapě představují dostupné meteorologické stanice.

Když kurzor umístíte na tečku, zobrazí se název stanice.

Pak kliknutím zobrazíte stav a předpověď počasí.

Chcete-li změnit mapu, kliknutím na zelené tlačítko se znaménkem +mapu přiblížíte, kliknutím na zelené tlačítko se znaménkem – mapu oddálíte a kliknutím na zelené šipky přejdete na sousední mapy.


METAR-TAF: